Dai2kousei — JD2542 — position and weather

sailwx.info

Track history (hours):
 
Tides and Currents Weather Stations Pressure Air Temp Water Temp Dewpoint Dewpoint Depression Visibility Wind Speed Wind Dir Waves Ship Positions

Dai2kousei

Last reported at 2016-Apr-28 21:33 UTC. Time now 2016-Apr-28 21:52 UTC.
Position N 35°34' E 140°06'.

Length 77 m; draft 4.7 m.

MMSI: 431000467.

Date/timePositionNaut miles runAvg speedWind from/ knotsBaromVisibWave heightAir tempDewpointWater temp
2016-Apr-28 21:33N 35°34' E 140°06'2 2.2
2016-Apr-28 20:33N 35°35' E 140°03'0 0.0
2016-Apr-28 19:33N 35°35' E 140°03'0 0.0
2016-Apr-28 18:33N 35°35' E 140°03'0 0.0
2016-Apr-28 17:33N 35°35' E 140°03'0 0.0
2016-Apr-28 16:33N 35°35' E 140°03'0 0.0
2016-Apr-28 15:33N 35°35' E 140°03'0 0.0
2016-Apr-28 14:33N 35°35' E 140°03'0 0.0
2016-Apr-28 13:33N 35°35' E 140°03'0 0.0
2016-Apr-28 12:33N 35°35' E 140°03'0 0.0
2016-Apr-28 11:32N 35°35' E 140°03'0 0.1
2016-Apr-28 10:33N 35°35' E 140°03'0 0.0
2016-Apr-28 09:33N 35°35' E 140°03'7 6.6
2016-Apr-28 08:33N 35°32' E 139°56'1010.1
2016-Apr-28 07:33N 35°29' E 139°44'0 0.0
2016-Apr-28 06:33N 35°29' E 139°44'0 0.0
2016-Apr-28 05:33N 35°29' E 139°44'0 0.0
2016-Apr-28 04:33N 35°29' E 139°44'0 0.0
2016-Apr-28 03:33N 35°29' E 139°44'0 0.0
2016-Apr-28 02:33N 35°29' E 139°44'0 0.0
2016-Apr-28 01:33N 35°29' E 139°44'0 0.0
2016-Apr-28 00:33N 35°29' E 139°44'0 0.0
2016-Apr-27 23:33N 35°29' E 139°44'0 0.0
2016-Apr-27 22:33N 35°29' E 139°44'0 0.0
2016-Apr-27 21:33N 35°29' E 139°44'0 0.0
2016-Apr-27 20:33N 35°29' E 139°44'1 1.1
2016-Apr-27 19:33N 35°29' E 139°45'0 0.4
2016-Apr-27 18:33N 35°29' E 139°46'0 0.0
2016-Apr-27 17:33N 35°29' E 139°46'0 0.0
2016-Apr-27 16:33N 35°29' E 139°46'0 0.0
2016-Apr-27 15:33N 35°29' E 139°46'0 0.0
2016-Apr-27 14:33N 35°29' E 139°46'0 0.0
2016-Apr-27 13:33N 35°29' E 139°46'0 0.0
2016-Apr-27 12:33N 35°29' E 139°46'0 0.0
2016-Apr-27 11:33N 35°29' E 139°46'0 0.0
2016-Apr-27 10:33N 35°29' E 139°46'0 0.0
2016-Apr-27 09:33N 35°29' E 139°46'0 0.0
2016-Apr-27 08:33N 35°29' E 139°46'0 0.0
2016-Apr-27 07:33N 35°29' E 139°46'0 0.0
2016-Apr-27 06:33N 35°29' E 139°46'0 0.0
2016-Apr-27 05:33N 35°29' E 139°46'0 0.0
2016-Apr-27 04:33N 35°29' E 139°46'0 0.0
2016-Apr-27 03:33N 35°29' E 139°46'0 0.0
2016-Apr-27 02:33N 35°29' E 139°46'0 0.0
2016-Apr-27 01:33N 35°29' E 139°46'0 0.0
2016-Apr-27 00:33N 35°29' E 139°46'0 0.0
2016-Apr-26 23:33N 35°29' E 139°46'0 0.0
2016-Apr-26 22:33N 35°29' E 139°46'0 0.1
2016-Apr-26 21:33N 35°29' E 139°46'0 0.1
2016-Apr-26 20:33N 35°29' E 139°46'0 0.0
2016-Apr-26 19:33N 35°29' E 139°46'0 0.1
2016-Apr-26 18:33N 35°29' E 139°46'0 0.0
2016-Apr-26 17:33N 35°29' E 139°46'0 0.0
2016-Apr-26 16:33N 35°29' E 139°46'0 0.0
2016-Apr-26 15:33N 35°29' E 139°46'0 0.0
2016-Apr-26 14:33N 35°29' E 139°46'0 0.0
2016-Apr-26 13:33N 35°29' E 139°46'0 0.0
2016-Apr-26 12:33N 35°29' E 139°46'0 0.0
2016-Apr-26 11:33N 35°29' E 139°46'0 0.0
2016-Apr-26 10:33N 35°29' E 139°46'7 6.9
2016-Apr-26 09:33N 35°22' E 139°45'1211.5
2016-Apr-26 08:31N 35°10' E 139°46'  
2016-Apr-23 11:05N 34°08' E 134°44'244 9.5
2016-Apr-22 09:21N 35°02' E 139°33'1011.5
2016-Apr-22 08:31N 35°07' E 139°42'1010.3
2016-Apr-22 07:34N 35°17' E 139°45'10 9.9
2016-Apr-22 06:34N 35°27' E 139°44'2 2.4
2016-Apr-22 05:33N 35°29' E 139°44'0 0.0
2016-Apr-22 04:34N 35°29' E 139°44'0 0.0
2016-Apr-22 03:33N 35°29' E 139°44'0 0.0
2016-Apr-22 02:33N 35°29' E 139°44'0 0.0
2016-Apr-22 01:34N 35°29' E 139°44'0 0.0
2016-Apr-22 00:34N 35°29' E 139°44'0 0.0
2016-Apr-21 23:33N 35°29' E 139°44'0 0.0
2016-Apr-21 22:34N 35°29' E 139°44'0 0.0
2016-Apr-21 21:34N 35°29' E 139°44'0 0.0
2016-Apr-21 20:33N 35°29' E 139°44'0 0.0
2016-Apr-21 19:34N 35°29' E 139°44'0 0.0
2016-Apr-21 18:34N 35°29' E 139°44'0 0.0
2016-Apr-21 17:34N 35°29' E 139°44'0 0.0
2016-Apr-21 16:33N 35°29' E 139°44'0 0.0
2016-Apr-21 15:33N 35°29' E 139°44'0 0.0
2016-Apr-21 14:33N 35°29' E 139°44'0 0.0
2016-Apr-21 13:33N 35°29' E 139°44'8 8.0
2016-Apr-21 12:33N 35°30' E 139°54'1 1.1
2016-Apr-21 11:33N 35°29' E 139°55'0 0.0
2016-Apr-21 10:33N 35°29' E 139°55'0 0.0
2016-Apr-21 09:33N 35°29' E 139°55'0 0.0
2016-Apr-21 08:33N 35°29' E 139°55'5 5.3
2016-Apr-21 07:33N 35°33' E 140°00'6 5.7
2016-Apr-21 06:33N 35°34' E 140°07'0 0.0
2016-Apr-21 05:33N 35°34' E 140°07'0 0.0
2016-Apr-21 04:33N 35°34' E 140°07'0 0.0
2016-Apr-21 03:33N 35°34' E 140°07'0 0.0
2016-Apr-21 02:33N 35°34' E 140°07'0 0.0
2016-Apr-21 01:33N 35°34' E 140°07'0 0.0
2016-Apr-21 00:33N 35°34' E 140°07'0 0.0
2016-Apr-20 23:33N 35°34' E 140°07'0 0.0
2016-Apr-20 22:33N 35°34' E 140°07'2 1.8
2016-Apr-20 21:33N 35°34' E 140°05'1 1.1
2016-Apr-20 20:33N 35°34' E 140°04'0 0.0
2016-Apr-20 19:33N 35°34' E 140°04'0 0.0
2016-Apr-20 18:33N 35°34' E 140°04'0 0.0
2016-Apr-20 17:32N 35°34' E 140°04'0 0.0
2016-Apr-20 16:33N 35°34' E 140°04'0 0.0
2016-Apr-20 15:33N 35°34' E 140°04'0 0.0
2016-Apr-20 14:33N 35°34' E 140°04'0 0.0
2016-Apr-20 13:33N 35°35' E 140°04'0 0.0
2016-Apr-20 12:32N 35°35' E 140°04'0 0.0
2016-Apr-20 11:33N 35°34' E 140°04'0 0.0
2016-Apr-20 10:33N 35°35' E 140°04'0 0.0
2016-Apr-20 09:33N 35°34' E 140°04'0 0.0
2016-Apr-20 08:34N 35°35' E 140°04'0 0.3
2016-Apr-20 07:33N 35°34' E 140°03'1111.0
2016-Apr-20 06:33N 35°30' E 139°51'6 5.5
2016-Apr-20 05:33N 35°29' E 139°44'0 0.0
2016-Apr-20 04:33N 35°29' E 139°44'0 0.0
2016-Apr-20 03:33N 35°29' E 139°44'0 0.0
2016-Apr-20 02:33N 35°29' E 139°44'0 0.0
2016-Apr-20 01:33N 35°29' E 139°44'0 0.0
2016-Apr-20 00:33N 35°29' E 139°44'0 0.0
2016-Apr-19 23:33N 35°29' E 139°44'0 0.0
2016-Apr-19 22:33N 35°29' E 139°44'0 0.0
2016-Apr-19 21:33N 35°29' E 139°44'0 0.0
2016-Apr-19 20:33N 35°29' E 139°44'0 0.0
2016-Apr-19 19:33N 35°29' E 139°44'0 0.0
2016-Apr-19 18:33N 35°29' E 139°44'1 1.2
2016-Apr-19 17:33N 35°29' E 139°46'0 0.0
2016-Apr-19 16:33N 35°29' E 139°46'0 0.0
2016-Apr-19 15:33N 35°29' E 139°46'0 0.0
2016-Apr-19 14:34N 35°29' E 139°46'0 0.1
2016-Apr-19 13:33N 35°29' E 139°46'0 0.0
2016-Apr-19 12:33N 35°29' E 139°46'0 0.1
2016-Apr-19 11:33N 35°29' E 139°46'0 0.0
2016-Apr-19 10:34N 35°29' E 139°46'0 0.2
2016-Apr-19 09:33N 35°29' E 139°46'0 0.1
2016-Apr-19 08:33N 35°29' E 139°46'0 0.0
2016-Apr-19 07:33N 35°29' E 139°46'0 0.2
2016-Apr-19 06:34N 35°29' E 139°46'1111.4
2016-Apr-19 05:33N 35°17' E 139°45'  
Track history (hours):
 
Tides and Currents Weather Stations Pressure Air Temp Water Temp Dewpoint Dewpoint Depression Visibility Wind Speed Wind Dir Waves Ship Positions

Dai2kousei

Last reported at 2016-Apr-28 21:33 UTC. Time now 2016-Apr-28 21:52 UTC.
Position N 35°34' E 140°06'.

Length 77 m; draft 4.7 m.

MMSI: 431000467.

Date/timePositionNaut miles runAvg speedWind from/ knotsBaromVisibWave heightAir tempDewpointWater temp
2016-Apr-28 21:33N 35°34' E 140°06'2 2.2
2016-Apr-28 20:33N 35°35' E 140°03'0 0.0
2016-Apr-28 19:33N 35°35' E 140°03'0 0.0
2016-Apr-28 18:33N 35°35' E 140°03'0 0.0
2016-Apr-28 17:33N 35°35' E 140°03'0 0.0
2016-Apr-28 16:33N 35°35' E 140°03'0 0.0
2016-Apr-28 15:33N 35°35' E 140°03'0 0.0
2016-Apr-28 14:33N 35°35' E 140°03'0 0.0
2016-Apr-28 13:33N 35°35' E 140°03'0 0.0
2016-Apr-28 12:33N 35°35' E 140°03'0 0.0
2016-Apr-28 11:32N 35°35' E 140°03'0 0.1
2016-Apr-28 10:33N 35°35' E 140°03'0 0.0
2016-Apr-28 09:33N 35°35' E 140°03'7 6.6
2016-Apr-28 08:33N 35°32' E 139°56'1010.1
2016-Apr-28 07:33N 35°29' E 139°44'0 0.0
2016-Apr-28 06:33N 35°29' E 139°44'0 0.0
2016-Apr-28 05:33N 35°29' E 139°44'0 0.0
2016-Apr-28 04:33N 35°29' E 139°44'0 0.0
2016-Apr-28 03:33N 35°29' E 139°44'0 0.0
2016-Apr-28 02:33N 35°29' E 139°44'0 0.0
2016-Apr-28 01:33N 35°29' E 139°44'0 0.0
2016-Apr-28 00:33N 35°29' E 139°44'0 0.0
2016-Apr-27 23:33N 35°29' E 139°44'0 0.0
2016-Apr-27 22:33N 35°29' E 139°44'0 0.0
2016-Apr-27 21:33N 35°29' E 139°44'0 0.0
2016-Apr-27 20:33N 35°29' E 139°44'1 1.1
2016-Apr-27 19:33N 35°29' E 139°45'0 0.4
2016-Apr-27 18:33N 35°29' E 139°46'0 0.0
2016-Apr-27 17:33N 35°29' E 139°46'0 0.0
2016-Apr-27 16:33N 35°29' E 139°46'0 0.0
2016-Apr-27 15:33N 35°29' E 139°46'0 0.0
2016-Apr-27 14:33N 35°29' E 139°46'0 0.0
2016-Apr-27 13:33N 35°29' E 139°46'0 0.0
2016-Apr-27 12:33N 35°29' E 139°46'0 0.0
2016-Apr-27 11:33N 35°29' E 139°46'0 0.0
2016-Apr-27 10:33N 35°29' E 139°46'0 0.0
2016-Apr-27 09:33N 35°29' E 139°46'0 0.0
2016-Apr-27 08:33N 35°29' E 139°46'0 0.0
2016-Apr-27 07:33N 35°29' E 139°46'0 0.0
2016-Apr-27 06:33N 35°29' E 139°46'0 0.0
2016-Apr-27 05:33N 35°29' E 139°46'0 0.0
2016-Apr-27 04:33N 35°29' E 139°46'0 0.0
2016-Apr-27 03:33N 35°29' E 139°46'0 0.0
2016-Apr-27 02:33N 35°29' E 139°46'0 0.0
2016-Apr-27 01:33N 35°29' E 139°46'0 0.0
2016-Apr-27 00:33N 35°29' E 139°46'0 0.0
2016-Apr-26 23:33N 35°29' E 139°46'0 0.0
2016-Apr-26 22:33N 35°29' E 139°46'0 0.1
2016-Apr-26 21:33N 35°29' E 139°46'0 0.1
2016-Apr-26 20:33N 35°29' E 139°46'0 0.0
2016-Apr-26 19:33N 35°29' E 139°46'0 0.1
2016-Apr-26 18:33N 35°29' E 139°46'0 0.0
2016-Apr-26 17:33N 35°29' E 139°46'0 0.0
2016-Apr-26 16:33N 35°29' E 139°46'0 0.0
2016-Apr-26 15:33N 35°29' E 139°46'0 0.0
2016-Apr-26 14:33N 35°29' E 139°46'0 0.0
2016-Apr-26 13:33N 35°29' E 139°46'0 0.0
2016-Apr-26 12:33N 35°29' E 139°46'0 0.0
2016-Apr-26 11:33N 35°29' E 139°46'0 0.0
2016-Apr-26 10:33N 35°29' E 139°46'7 6.9
2016-Apr-26 09:33N 35°22' E 139°45'1211.5
2016-Apr-26 08:31N 35°10' E 139°46'  
2016-Apr-23 11:05N 34°08' E 134°44'244 9.5
2016-Apr-22 09:21N 35°02' E 139°33'1011.5
2016-Apr-22 08:31N 35°07' E 139°42'1010.3
2016-Apr-22 07:34N 35°17' E 139°45'10 9.9
2016-Apr-22 06:34N 35°27' E 139°44'2 2.4
2016-Apr-22 05:33N 35°29' E 139°44'0 0.0
2016-Apr-22 04:34N 35°29' E 139°44'0 0.0
2016-Apr-22 03:33N 35°29' E 139°44'0 0.0
2016-Apr-22 02:33N 35°29' E 139°44'0 0.0
2016-Apr-22 01:34N 35°29' E 139°44'0 0.0
2016-Apr-22 00:34N 35°29' E 139°44'0 0.0
2016-Apr-21 23:33N 35°29' E 139°44'0 0.0
2016-Apr-21 22:34N 35°29' E 139°44'0 0.0
2016-Apr-21 21:34N 35°29' E 139°44'0 0.0
2016-Apr-21 20:33N 35°29' E 139°44'0 0.0
2016-Apr-21 19:34N 35°29' E 139°44'0 0.0
2016-Apr-21 18:34N 35°29' E 139°44'0 0.0
2016-Apr-21 17:34N 35°29' E 139°44'0 0.0
2016-Apr-21 16:33N 35°29' E 139°44'0 0.0
2016-Apr-21 15:33N 35°29' E 139°44'0 0.0
2016-Apr-21 14:33N 35°29' E 139°44'0 0.0
2016-Apr-21 13:33N 35°29' E 139°44'8 8.0
2016-Apr-21 12:33N 35°30' E 139°54'1 1.1
2016-Apr-21 11:33N 35°29' E 139°55'0 0.0
2016-Apr-21 10:33N 35°29' E 139°55'0 0.0
2016-Apr-21 09:33N 35°29' E 139°55'0 0.0
2016-Apr-21 08:33N 35°29' E 139°55'5 5.3
2016-Apr-21 07:33N 35°33' E 140°00'6 5.7
2016-Apr-21 06:33N 35°34' E 140°07'0 0.0
2016-Apr-21 05:33N 35°34' E 140°07'0 0.0
2016-Apr-21 04:33N 35°34' E 140°07'0 0.0
2016-Apr-21 03:33N 35°34' E 140°07'0 0.0
2016-Apr-21 02:33N 35°34' E 140°07'0 0.0
2016-Apr-21 01:33N 35°34' E 140°07'0 0.0
2016-Apr-21 00:33N 35°34' E 140°07'0 0.0
2016-Apr-20 23:33N 35°34' E 140°07'0 0.0
2016-Apr-20 22:33N 35°34' E 140°07'2 1.8
2016-Apr-20 21:33N 35°34' E 140°05'1 1.1
2016-Apr-20 20:33N 35°34' E 140°04'0 0.0
2016-Apr-20 19:33N 35°34' E 140°04'0 0.0
2016-Apr-20 18:33N 35°34' E 140°04'0 0.0
2016-Apr-20 17:32N 35°34' E 140°04'0 0.0
2016-Apr-20 16:33N 35°34' E 140°04'0 0.0
2016-Apr-20 15:33N 35°34' E 140°04'0 0.0
2016-Apr-20 14:33N 35°34' E 140°04'0 0.0
2016-Apr-20 13:33N 35°35' E 140°04'0 0.0
2016-Apr-20 12:32N 35°35' E 140°04'0 0.0
2016-Apr-20 11:33N 35°34' E 140°04'0 0.0
2016-Apr-20 10:33N 35°35' E 140°04'0 0.0
2016-Apr-20 09:33N 35°34' E 140°04'0 0.0
2016-Apr-20 08:34N 35°35' E 140°04'0 0.3
2016-Apr-20 07:33N 35°34' E 140°03'1111.0
2016-Apr-20 06:33N 35°30' E 139°51'6 5.5
2016-Apr-20 05:33N 35°29' E 139°44'0 0.0
2016-Apr-20 04:33N 35°29' E 139°44'0 0.0
2016-Apr-20 03:33N 35°29' E 139°44'0 0.0
2016-Apr-20 02:33N 35°29' E 139°44'0 0.0
2016-Apr-20 01:33N 35°29' E 139°44'0 0.0
2016-Apr-20 00:33N 35°29' E 139°44'0 0.0
2016-Apr-19 23:33N 35°29' E 139°44'0 0.0
2016-Apr-19 22:33N 35°29' E 139°44'0 0.0
2016-Apr-19 21:33N 35°29' E 139°44'0 0.0
2016-Apr-19 20:33N 35°29' E 139°44'0 0.0
2016-Apr-19 19:33N 35°29' E 139°44'0 0.0
2016-Apr-19 18:33N 35°29' E 139°44'1 1.2
2016-Apr-19 17:33N 35°29' E 139°46'0 0.0
2016-Apr-19 16:33N 35°29' E 139°46'0 0.0
2016-Apr-19 15:33N 35°29' E 139°46'0 0.0
2016-Apr-19 14:34N 35°29' E 139°46'0 0.1
2016-Apr-19 13:33N 35°29' E 139°46'0 0.0
2016-Apr-19 12:33N 35°29' E 139°46'0 0.1
2016-Apr-19 11:33N 35°29' E 139°46'0 0.0
2016-Apr-19 10:34N 35°29' E 139°46'0 0.2
2016-Apr-19 09:33N 35°29' E 139°46'0 0.1
2016-Apr-19 08:33N 35°29' E 139°46'0 0.0
2016-Apr-19 07:33N 35°29' E 139°46'0 0.2
2016-Apr-19 06:34N 35°29' E 139°46'1111.4
2016-Apr-19 05:33N 35°17' E 139°45'  

Dump ship's entire track history